Time;durP1;ratioP1;P1;durP2;ratioP2;P2;SDS_P1;SDS_P2;PMS_P1;PMS_P2;Temp;Humidity;BMP_temperature;BMP_pressure;BME280_temperature;BME280_humidity;BME280_pressure;Samples;Min_cycle;Max_cycle;Signal;HPM_P1;HPM_P2
2023/05/20 00:01:09;;;;;;;14.53;9.20;;;13.30;99.90;;;;;;4161490;28;20046;-62
2023/05/20 00:03:10;;;;;;;15.07;9.83;;;13.20;99.90;;;;;;4163286;28;20083;-77
2023/05/20 00:05:11;;;;;;;14.07;9.37;;;13.20;99.90;;;;;;4161724;28;20087;-73
2023/05/20 00:07:13;;;;;;;13.77;9.10;;;13.20;99.90;;;;;;4163188;28;20038;-60
2023/05/20 00:09:15;;;;;;;14.33;9.70;;;13.10;99.90;;;;;;4161548;28;20041;-73
2023/05/20 00:11:16;;;;;;;13.43;9.57;;;13.10;99.90;;;;;;4162564;28;20092;-79
2023/05/20 00:13:18;;;;;;;16.43;9.70;;;13.10;99.90;;;;;;4161731;28;20099;-78
2023/05/20 00:15:19;;;;;;;17.33;9.90;;;13.10;99.90;;;;;;4162849;28;20413;-61
2023/05/20 00:17:20;;;;;;;17.13;9.90;;;13.10;99.90;;;;;;4162140;28;20080;-61
2023/05/20 00:19:21;;;;;;;13.90;9.03;;;13.00;99.90;;;;;;4162692;28;20030;-81
2023/05/20 00:21:22;;;;;;;14.00;9.77;;;13.00;99.90;;;;;;4161384;28;20049;-60
2023/05/20 00:23:23;;;;;;;12.50;9.40;;;12.90;99.90;;;;;;4162186;28;20025;-80
2023/05/20 00:25:24;;;;;;;15.10;9.63;;;12.90;99.90;;;;;;4162499;28;20822;-61
2023/05/20 00:27:26;;;;;;;13.37;9.00;;;12.90;99.90;;;;;;4161833;28;20489;-79
2023/05/20 00:29:27;;;;;;;12.93;8.90;;;12.90;99.90;;;;;;4162764;28;20091;-77
2023/05/20 00:31:28;;;;;;;17.83;10.03;;;12.90;99.90;;;;;;4161698;28;20604;-80
2023/05/20 00:33:30;;;;;;;10.53;8.30;;;12.90;99.90;;;;;;4162552;28;20079;-77
2023/05/20 00:35:31;;;;;;;13.57;8.87;;;12.80;99.90;;;;;;4162016;28;20362;-60
2023/05/20 00:37:33;;;;;;;14.30;9.70;;;12.80;99.90;;;;;;4162802;28;20043;-65
2023/05/20 00:39:35;;;;;;;14.43;9.57;;;12.80;99.90;;;;;;4160711;28;20485;-74
2023/05/20 00:41:37;;;;;;;13.47;8.50;;;12.80;99.90;;;;;;4162672;28;20014;-80
2023/05/20 00:43:38;;;;;;;13.60;9.50;;;12.80;99.90;;;;;;4161577;28;20026;-79
2023/05/20 00:45:39;;;;;;;15.00;9.43;;;12.80;99.90;;;;;;4161373;28;20041;-60
2023/05/20 00:47:41;;;;;;;13.20;8.63;;;12.70;99.90;;;;;;4161522;28;20040;-60
2023/05/20 00:49:44;;;;;;;14.47;9.43;;;12.70;99.90;;;;;;4144196;28;20034;-60
2023/05/20 00:51:46;;;;;;;13.97;10.07;;;12.70;99.90;;;;;;4160948;28;20482;-58
2023/05/20 00:53:48;;;;;;;14.07;10.33;;;12.70;99.90;;;;;;4161543;28;20092;-67
2023/05/20 00:55:49;;;;;;;13.73;9.60;;;12.60;99.90;;;;;;4161878;28;20029;-61
2023/05/20 00:57:52;;;;;;;16.77;9.33;;;12.60;99.90;;;;;;4161229;28;20733;-78
2023/05/20 00:59:53;;;;;;;12.67;9.23;;;12.50;99.90;;;;;;4162323;28;20467;-60
2023/05/20 01:01:55;;;;;;;13.80;9.37;;;12.50;99.90;;;;;;4160016;28;20033;-77
2023/05/20 01:03:58;;;;;;;16.23;10.30;;;12.50;99.90;;;;;;4162266;28;20079;-71
2023/05/20 01:05:59;;;;;;;16.97;9.33;;;12.50;99.90;;;;;;4160733;28;20041;-78
2023/05/20 01:08:01;;;;;;;12.57;9.00;;;12.50;99.90;;;;;;4161565;28;20448;-78
2023/05/20 01:10:02;;;;;;;14.93;10.23;;;12.50;99.90;;;;;;4159980;28;20041;-73
2023/05/20 01:12:17;;;;;;;16.13;10.27;;;12.50;99.90;;;;;;4162136;28;20029;-74
2023/05/20 01:14:21;;;;;;;12.57;9.50;;;12.40;99.90;;;;;;4160245;28;20057;-73
2023/05/20 01:16:23;;;;;;;12.17;9.33;;;12.40;99.90;;;;;;4162146;28;20029;-72
2023/05/20 01:18:28;;;;;;;13.70;9.67;;;12.40;99.90;;;;;;4160971;28;20087;-76
2023/05/20 01:20:31;;;;;;;14.97;9.63;;;12.40;99.90;;;;;;4160898;28;20115;-67
2023/05/20 01:22:32;;;;;;;16.83;9.97;;;12.40;99.90;;;;;;4160954;28;20115;-78
2023/05/20 01:24:33;;;;;;;14.33;9.77;;;12.40;99.90;;;;;;4161848;28;20440;-73
2023/05/20 01:26:37;;;;;;;14.13;9.13;;;12.40;99.90;;;;;;4160239;28;20095;-79
2023/05/20 01:28:38;;;;;;;13.07;9.43;;;12.40;99.90;;;;;;4160726;28;20095;-61
2023/05/20 01:30:51;;;;;;;14.83;8.87;;;12.40;99.90;;;;;;4161011;28;20029;-58
2023/05/20 01:32:57;;;;;;;11.90;8.57;;;12.40;99.90;;;;;;4160223;28;20107;-59
2023/05/20 01:34:59;;;;;;;12.13;8.87;;;12.40;99.90;;;;;;4160722;28;20091;-59
2023/05/20 01:37:03;;;;;;;12.93;9.10;;;12.30;99.90;;;;;;4161116;28;20041;-67
2023/05/20 01:39:05;;;;;;;13.00;8.97;;;12.30;99.90;;;;;;4160575;28;20037;-60
2023/05/20 01:41:07;;;;;;;13.87;8.70;;;12.30;99.90;;;;;;4159964;28;20137;-61
2023/05/20 01:43:09;;;;;;;12.47;9.33;;;12.30;99.90;;;;;;4161531;28;20030;-59
2023/05/20 01:45:10;;;;;;;11.93;9.00;;;12.30;99.90;;;;;;4160815;28;20026;-62
2023/05/20 01:47:12;;;;;;;17.27;8.87;;;12.30;99.90;;;;;;4161861;28;20041;-77
2023/05/20 01:49:13;;;;;;;12.03;9.00;;;12.30;99.90;;;;;;4159817;28;20041;-76
2023/05/20 01:51:14;;;;;;;12.03;8.90;;;12.30;99.90;;;;;;4160868;28;20049;-78
2023/05/20 01:53:16;;;;;;;14.63;9.20;;;12.30;99.90;;;;;;4160688;28;20514;-76
2023/05/20 01:55:17;;;;;;;15.87;9.47;;;12.30;99.90;;;;;;4161036;28;20445;-70
2023/05/20 01:57:22;;;;;;;13.97;9.73;;;12.30;99.90;;;;;;4159935;28;20103;-80
2023/05/20 01:59:23;;;;;;;14.10;9.27;;;12.20;99.90;;;;;;4161109;28;20371;-75
2023/05/20 02:01:24;;;;;;;14.83;9.70;;;12.10;99.90;;;;;;4160410;28;20084;-66
2023/05/20 02:03:25;;;;;;;12.07;8.43;;;12.10;99.90;;;;;;4161507;28;20025;-60
2023/05/20 02:05:26;;;;;;;13.37;9.87;;;12.10;99.90;;;;;;4161092;28;20041;-78
2023/05/20 02:07:27;;;;;;;12.07;7.90;;;12.00;99.90;;;;;;4161177;28;20038;-74
2023/05/20 02:09:29;;;;;;;12.67;8.70;;;12.00;99.90;;;;;;4160568;28;20056;-60
2023/05/20 02:11:30;;;;;;;13.73;9.17;;;12.00;99.90;;;;;;4142508;28;20038;-61
2023/05/20 02:13:31;;;;;;;14.40;10.03;;;11.90;99.90;;;;;;4161287;28;20563;-76
2023/05/20 02:15:32;;;;;;;16.97;9.67;;;11.90;99.90;;;;;;4159704;28;20071;-63
2023/05/20 02:17:33;;;;;;;14.20;9.13;;;11.80;99.90;;;;;;4160712;28;20435;-80
2023/05/20 02:19:34;;;;;;;13.00;8.57;;;11.80;99.90;;;;;;4159111;28;20449;-75
2023/05/20 02:21:35;;;;;;;13.63;9.87;;;11.80;99.90;;;;;;4160209;28;20434;-76
2023/05/20 02:23:36;;;;;;;14.40;9.97;;;11.70;99.90;;;;;;4159714;28;20379;-80
2023/05/20 02:25:38;;;;;;;18.53;9.53;;;11.60;99.90;;;;;;4143218;28;20088;-70
2023/05/20 02:27:39;;;;;;;14.50;10.10;;;11.50;99.90;;;;;;4159954;28;20088;-78
2023/05/20 02:29:43;;;;;;;14.47;9.87;;;11.40;99.90;;;;;;4160771;28;20034;-77
2023/05/20 02:31:44;;;;;;;17.10;9.30;;;11.40;99.90;;;;;;4160479;28;20080;-78
2023/05/20 02:33:45;;;;;;;14.20;9.77;;;11.40;99.90;;;;;;4160586;28;20080;-76
2023/05/20 02:35:46;;;;;;;12.00;9.10;;;11.40;99.90;;;;;;4160925;28;20381;-77
2023/05/20 02:37:47;;;;;;;13.93;8.70;;;11.40;99.90;;;;;;4160227;28;20425;-69
2023/05/20 02:39:48;;;;;;;13.47;8.77;;;11.40;99.90;;;;;;4160857;28;20049;-73
2023/05/20 02:41:50;;;;;;;13.47;9.10;;;11.40;99.90;;;;;;4160039;28;20697;-70
2023/05/20 02:43:51;;;;;;;17.80;9.47;;;11.40;99.90;;;;;;4161503;28;20041;-74
2023/05/20 02:45:52;;;;;;;14.87;9.83;;;11.40;99.90;;;;;;4162528;28;20087;-78
2023/05/20 02:47:53;;;;;;;14.33;9.43;;;11.40;99.90;;;;;;4164137;28;20551;-72
2023/05/20 02:49:54;;;;;;;17.00;10.60;;;11.40;99.90;;;;;;4163141;28;20037;-71
2023/05/20 02:51:55;;;;;;;14.47;9.47;;;11.40;99.90;;;;;;4164141;28;20033;-79
2023/05/20 02:53:56;;;;;;;14.07;9.37;;;11.30;99.90;;;;;;4162146;28;20026;-79
2023/05/20 02:55:58;;;;;;;17.87;12.60;;;11.20;99.90;;;;;;4164168;28;20071;-77
2023/05/20 02:57:59;;;;;;;22.17;14.27;;;11.20;99.90;;;;;;4144851;28;20042;-60
2023/05/20 03:00:00;;;;;;;16.60;13.73;;;11.20;99.90;;;;;;4163796;28;20045;-60
2023/05/20 03:02:02;;;;;;;19.83;14.50;;;11.30;99.90;;;;;;4163068;28;20646;-66
2023/05/20 03:04:03;;;;;;;19.50;12.03;;;11.30;99.90;;;;;;4163381;28;20432;-75
2023/05/20 03:06:04;;;;;;;19.10;11.70;;;11.20;99.90;;;;;;4163379;28;20107;-72
2023/05/20 03:08:09;;;;;;;21.10;11.23;;;11.20;99.90;;;;;;4163686;28;20048;-60
2023/05/20 03:10:10;;;;;;;15.40;10.10;;;11.10;99.90;;;;;;4145205;28;20042;-60
2023/05/20 03:12:11;;;;;;;18.77;11.00;;;11.10;99.90;;;;;;4162698;28;20465;-80
2023/05/20 03:14:12;;;;;;;15.47;10.27;;;11.10;99.90;;;;;;4162582;28;20092;-77
2023/05/20 03:16:15;;;;;;;15.97;11.43;;;11.10;99.90;;;;;;4161684;28;20041;-78
2023/05/20 03:18:16;;;;;;;14.17;10.43;;;11.20;99.90;;;;;;4163722;28;20026;-73
2023/05/20 03:20:18;;;;;;;18.90;10.43;;;11.20;99.90;;;;;;4161716;28;20053;-62
2023/05/20 03:22:19;;;;;;;15.13;10.33;;;11.30;99.90;;;;;;4163712;28;20071;-67
2023/05/20 03:24:22;;;;;;;16.87;10.33;;;11.60;99.90;;;;;;4162607;28;20033;-64
2023/05/20 03:26:24;;;;;;;15.30;9.80;;;11.80;99.90;;;;;;4163697;28;20079;-66
2023/05/20 03:28:25;;;;;;;15.00;9.27;;;12.00;99.90;;;;;;4162400;28;20029;-59
2023/05/20 03:30:27;;;;;;;16.20;10.33;;;12.40;99.90;;;;;;4163818;28;20029;-62
2023/05/20 03:32:28;;;;;;;14.63;10.07;;;12.60;99.90;;;;;;4162393;28;20033;-75
2023/05/20 03:34:29;;;;;;;15.43;9.37;;;12.90;99.90;;;;;;4162814;28;20037;-77
2023/05/20 03:36:31;;;;;;;15.27;9.87;;;13.10;99.90;;;;;;4162684;28;20575;-60
2023/05/20 03:38:32;;;;;;;13.50;9.23;;;13.30;99.90;;;;;;4163302;28;20029;-77
2023/05/20 03:40:33;;;;;;;14.37;9.00;;;13.50;99.90;;;;;;4162190;28;20064;-69
2023/05/20 03:42:35;;;;;;;14.57;9.37;;;13.80;99.90;;;;;;4162864;28;20029;-79
2023/05/20 03:44:36;;;;;;;15.60;9.53;;;14.00;99.90;;;;;;4162649;28;20119;-64
2023/05/20 03:46:37;;;;;;;14.90;8.63;;;14.20;99.90;;;;;;4162109;28;20060;-61
2023/05/20 03:48:38;;;;;;;13.23;8.93;;;14.50;99.90;;;;;;4163185;28;20389;-78
2023/05/20 03:50:39;;;;;;;15.77;9.13;;;14.80;99.90;;;;;;4161095;28;20037;-61
2023/05/20 03:52:40;;;;;;;13.03;9.43;;;15.10;99.90;;;;;;4163236;28;20494;-59
2023/05/20 03:54:41;;;;;;;12.67;9.27;;;15.40;99.90;;;;;;4161672;28;20041;-76
2023/05/20 03:56:42;;;;;;;12.63;8.27;;;15.70;99.90;;;;;;4163397;28;20037;-79
2023/05/20 03:58:44;;;;;;;16.17;8.90;;;16.10;99.90;;;;;;4161431;28;20448;-61
2023/05/20 04:00:46;;;;;;;12.60;8.05;;;16.30;99.90;;;;;;4145340;28;20045;-80
2023/05/20 04:02:47;;;;;;;12.32;7.80;;;16.60;99.90;;;;;;4161927;28;20033;-79
2023/05/20 04:04:51;;;;;;;13.43;8.07;;;16.90;99.90;;;;;;4163204;28;20343;-75
2023/05/20 04:06:53;;;;;;;10.20;7.30;;;17.30;99.90;;;;;;4162001;28;20087;-62
2023/05/20 04:08:54;;;;;;;9.43;6.90;;;17.70;99.90;;;;;;4162381;28;20041;-60
2023/05/20 04:10:56;;;;;;;9.35;6.97;;;18.00;99.90;;;;;;4161875;28;20049;-62
2023/05/20 04:12:57;;;;;;;9.88;6.97;;;18.30;99.90;;;;;;4162353;28;20033;-62
2023/05/20 04:15:02;;;;;;;10.43;7.15;;;18.70;99.90;;;;;;4162084;28;20106;-76
2023/05/20 04:17:04;;;;;;;11.82;7.18;;;19.00;99.90;;;;;;4161548;28;20460;-62
2023/05/20 04:19:06;;;;;;;15.23;7.05;;;19.30;99.90;;;;;;4162337;28;20022;-62
2023/05/20 04:21:07;;;;;;;11.82;7.45;;;19.50;99.90;;;;;;4160627;28;20841;-67
2023/05/20 04:23:09;;;;;;;17.65;8.90;;;19.60;99.90;;;;;;4162348;28;20099;-67
2023/05/20 04:25:12;;;;;;;12.80;7.90;;;19.00;99.90;;;;;;4161572;28;20037;-78
2023/05/20 04:27:15;;;;;;;15.07;9.40;;;18.90;99.90;;;;;;4161760;28;20095;-60
2023/05/20 04:29:17;;;;;;;14.43;8.30;;;19.20;99.90;;;;;;4143763;28;20038;-81
2023/05/20 04:31:19;;;;;;;13.80;6.68;;;19.70;99.90;;;;;;4162510;28;20095;-78
2023/05/20 04:33:20;;;;;;;8.65;6.65;;;20.10;99.90;;;;;;4161381;28;20014;-78
2023/05/20 04:35:24;;;;;;;9.95;6.80;;;20.40;99.90;;;;;;4162020;28;20038;-72
2023/05/20 04:37:25;;;;;;;7.63;6.38;;;20.80;99.90;;;;;;4161449;28;20030;-77
2023/05/20 04:39:26;;;;;;;9.25;6.53;;;21.30;99.90;;;;;;4162540;28;20029;-74
2023/05/20 04:41:28;;;;;;;9.57;6.50;;;21.40;99.90;;;;;;4161340;28;20037;-82
2023/05/20 04:43:29;;;;;;;7.70;6.07;;;21.50;99.90;;;;;;4162164;28;20087;-76
2023/05/20 04:45:32;;;;;;;8.18;5.95;;;21.50;99.90;;;;;;4160504;28;20041;-77
2023/05/20 04:47:37;;;;;;;11.40;6.72;;;21.40;99.90;;;;;;4161137;28;20547;-78
2023/05/20 04:49:38;;;;;;;13.00;6.32;;;21.50;99.90;;;;;;4161657;28;20088;-77
2023/05/20 04:51:40;;;;;;;7.97;6.90;;;21.50;99.90;;;;;;4161410;28;20441;-72
2023/05/20 04:53:42;;;;;;;10.20;6.30;;;21.60;99.90;;;;;;4161014;28;20597;-79
2023/05/20 04:55:44;;;;;;;11.95;7.15;;;21.50;99.90;;;;;;4161062;28;20421;-78
2023/05/20 04:57:45;;;;;;;11.88;6.78;;;21.20;99.90;;;;;;4161194;28;20107;-60
2023/05/20 04:59:47;;;;;;;10.18;6.25;;;21.30;99.90;;;;;;4160081;28;20029;-61
2023/05/20 05:01:48;;;;;;;7.25;6.38;;;21.80;99.90;;;;;;4161936;28;20095;-61
2023/05/20 05:03:49;;;;;;;9.23;6.57;;;21.90;99.90;;;;;;4160249;28;20045;-65
2023/05/20 05:05:54;;;;;;;15.27;6.13;;;21.50;99.90;;;;;;4162040;28;20034;-78
2023/05/20 05:07:55;;;;;;;12.52;9.23;;;21.60;99.90;;;;;;4159846;28;20041;-74
2023/05/20 05:09:56;;;;;;;8.57;6.20;;;21.90;99.80;;;;;;4162055;28;20485;-75
2023/05/20 05:11:57;;;;;;;10.93;6.95;;;22.40;99.50;;;;;;4160681;28;20038;-61
2023/05/20 05:13:58;;;;;;;8.85;6.20;;;22.90;98.80;;;;;;4161872;28;20045;-60
2023/05/20 05:16:00;;;;;;;9.00;6.47;;;23.50;97.90;;;;;;4160172;28;20053;-72
2023/05/20 05:18:02;;;;;;;6.82;6.10;;;23.60;97.40;;;;;;4143986;28;20068;-66
2023/05/20 05:20:03;;;;;;;9.30;6.78;;;23.50;97.10;;;;;;4159968;28;20075;-80
2023/05/20 05:22:04;;;;;;;11.98;6.20;;;23.30;96.80;;;;;;4161051;28;20092;-61
2023/05/20 05:24:06;;;;;;;8.85;6.07;;;23.00;96.90;;;;;;4160523;28;20547;-60
2023/05/20 05:26:07;;;;;;;7.93;6.82;;;22.80;97.10;;;;;;4160444;28;20041;-82
2023/05/20 05:28:08;;;;;;;10.38;7.35;;;23.00;96.90;;;;;;4161404;28;20029;-74
2023/05/20 05:30:10;;;;;;;9.07;6.30;;;22.90;96.80;;;;;;4160834;28;20547;-60
2023/05/20 05:32:11;;;;;;;10.35;6.22;;;22.20;96.80;;;;;;4160827;28;20041;-74
2023/05/20 05:34:12;;;;;;;9.00;6.68;;;21.70;97.40;;;;;;4159893;28;20056;-68
2023/05/20 05:36:14;;;;;;;8.77;6.45;;;21.40;97.80;;;;;;4161842;28;20076;-63
2023/05/20 05:38:17;;;;;;;7.78;6.32;;;21.20;98.10;;;;;;4160465;28;20049;-75
2023/05/20 05:40:18;;;;;;;8.70;6.03;;;21.00;98.30;;;;;;4161429;28;20052;-61
2023/05/20 05:42:19;;;;;;;8.57;6.07;;;20.60;98.80;;;;;;4160059;28;20037;-79
2023/05/20 05:44:20;;;;;;;9.18;6.03;;;20.40;98.80;;;;;;4161715;28;20096;-79
2023/05/20 05:46:21;;;;;;;11.15;6.80;;;20.10;99.30;;;;;;4160396;28;20029;-76
2023/05/20 05:48:22;;;;;;;13.05;6.90;;;20.00;99.80;;;;;;4161373;28;20033;-59
2023/05/20 05:50:23;;;;;;;10.52;7.35;;;19.80;99.90;;;;;;4159787;28;20934;-75
2023/05/20 05:52:25;;;;;;;12.93;7.43;;;19.70;99.90;;;;;;4161123;28;20041;-78
2023/05/20 05:54:27;;;;;;;12.50;7.35;;;19.90;99.90;;;;;;4160702;28;20029;-61
2023/05/20 05:56:28;;;;;;;8.70;6.70;;;20.20;99.90;;;;;;4159863;28;20100;-77
2023/05/20 05:58:29;;;;;;;12.13;7.20;;;20.20;99.90;;;;;;4160979;28;20033;-80
2023/05/20 06:00:30;;;;;;;10.60;7.05;;;20.40;99.90;;;;;;4160584;28;20045;-72
2023/05/20 06:02:34;;;;;;;9.80;7.53;;;20.80;99.90;;;;;;4161344;28;20041;-68
2023/05/20 06:04:36;;;;;;;9.32;6.85;;;20.90;99.90;;;;;;4159047;28;20167;-65
2023/05/20 06:06:37;;;;;;;11.00;7.40;;;21.40;99.90;;;;;;4160565;28;20480;-64
2023/05/20 06:08:38;;;;;;;11.18;7.70;;;21.90;99.20;;;;;;4159962;28;20022;-73
2023/05/20 06:10:39;;;;;;;12.23;6.82;;;22.50;98.70;;;;;;4160741;28;20092;-66
2023/05/20 06:12:40;;;;;;;13.25;7.70;;;23.20;98.00;;;;;;4159364;28;20049;-68
2023/05/20 06:14:41;;;;;;;8.82;6.45;;;23.90;97.30;;;;;;4160717;28;20505;-65
2023/05/20 06:16:42;;;;;;;13.05;6.95;;;24.30;96.60;;;;;;4159572;28;20041;-70
2023/05/20 06:18:45;;;;;;;9.77;6.68;;;24.80;95.90;;;;;;4162537;28;20485;-72
2023/05/20 06:20:53;;;;;;;9.35;7.30;;;25.10;95.30;;;;;;4162986;28;20045;-68
2023/05/20 06:22:54;;;;;;;9.60;6.57;;;25.50;94.90;;;;;;4163771;28;20099;-70
2023/05/20 06:24:59;;;;;;;8.93;6.80;;;26.00;94.40;;;;;;4163579;28;20547;-61
2023/05/20 06:27:00;;;;;;;11.57;6.78;;;26.30;93.90;;;;;;4153466;28;20462;-69
2023/05/20 06:29:02;;;;;;;9.48;6.88;;;26.10;93.30;;;;;;4146259;28;20116;-71
2023/05/20 06:31:03;;;;;;;10.80;7.53;;;26.10;93.20;;;;;;4146780;28;20038;-71
2023/05/20 06:33:04;;;;;;;9.88;7.40;;;26.30;92.80;;;;;;4150252;28;20096;-73
2023/05/20 06:35:07;;;;;;;10.00;7.25;;;26.20;92.50;;;;;;4162994;28;20042;-56
2023/05/20 06:37:08;;;;;;;10.43;6.88;;;;;;;;;;4164227;28;20416;-71
2023/05/20 06:39:13;;;;;;;13.15;7.07;;;;;;;;;;4162924;28;20029;-60
2023/05/20 06:41:14;;;;;;;11.27;7.22;;;;;;;;;;4164224;28;20071;-58
2023/05/20 06:43:16;;;;;;;8.73;6.05;;;;;;;;;;4163029;28;20046;-74
2023/05/20 06:45:17;;;;;;;12.35;6.32;;;;;;;;;;4164035;28;20064;-72
2023/05/20 06:47:19;;;;;;;11.38;5.70;;;;;;;;;;4161244;28;20139;-59
2023/05/20 06:49:21;;;;;;;19.27;7.38;;;;;;;;;;4164015;28;20029;-67
2023/05/20 06:51:22;;;;;;;18.48;6.90;;;;;;;;;;4162857;28;20453;-64
2023/05/20 06:53:24;;;;;;;15.73;6.95;;;;;;;;;;4163572;28;20037;-70
2023/05/20 06:55:25;;;;;;;15.32;7.90;;;;;;;;;;4162070;28;20049;-76
2023/05/20 06:57:27;;;;;;;16.95;6.55;;;;;;;;;;4157495;28;20042;-60
2023/05/20 06:59:28;;;;;;;11.35;5.60;;;;;;;;;;4146728;28;20026;-67
2023/05/20 07:01:29;;;;;;;9.63;5.30;;;;;;;;;;4147154;28;20041;-76
2023/05/20 07:03:31;;;;;;;10.32;5.70;;;;;;;;;;4146561;28;20018;-74
2023/05/20 07:05:32;;;;;;;14.88;6.55;;;;;;;;;;4146349;28;20034;-60
2023/05/20 07:07:33;;;;;;;12.00;6.28;;;;;;;;;;4147086;28;20085;-69
2023/05/20 07:09:35;;;;;;;10.77;6.30;;;;;;;;;;4129023;28;20042;-70
2023/05/20 07:11:36;;;;;;;11.05;6.55;;;26.60;92.10;;;;;;4145594;28;20042;-57
2023/05/20 07:13:37;;;;;;;10.63;6.18;;;24.10;87.50;;;;;;4145158;28;20038;-62
2023/05/20 07:15:38;;;;;;;14.90;6.53;;;23.50;88.20;;;;;;4160042;28;20096;-58
2023/05/20 07:17:39;;;;;;;20.17;6.80;;;23.40;88.90;;;;;;4161992;28;20513;-67
2023/05/20 07:19:41;;;;;;;15.32;7.15;;;23.20;89.10;;;;;;4163419;28;20515;-73
2023/05/20 07:21:42;;;;;;;14.30;6.47;;;23.00;89.70;;;;;;4162311;28;20049;-63
2023/05/20 07:23:43;;;;;;;11.77;6.70;;;22.80;90.20;;;;;;4163019;28;20450;-69
2023/05/20 07:25:44;;;;;;;8.27;5.53;;;22.90;90.10;;;;;;4162098;28;20013;-67
2023/05/20 07:27:45;;;;;;;14.98;5.90;;;22.70;90.30;;;;;;4163119;28;20465;-64
2023/05/20 07:29:46;;;;;;;16.55;8.48;;;22.50;90.60;;;;;;4161443;28;20042;-69
2023/05/20 07:31:48;;;;;;;16.42;8.30;;;22.30;91.00;;;;;;4162819;28;20059;-75
2023/05/20 07:33:49;;;;;;;16.38;5.95;;;22.40;91.20;;;;;;4161829;28;20029;-75
2023/05/20 07:35:53;;;;;;;10.05;6.32;;;22.70;91.10;;;;;;4161507;28;20049;-76
2023/05/20 07:37:54;;;;;;;11.25;6.00;;;22.70;90.60;;;;;;4145109;28;20041;-73
2023/05/20 07:39:55;;;;;;;11.15;5.80;;;22.40;90.80;;;;;;4161277;28;20115;-69
2023/05/20 07:41:56;;;;;;;9.60;5.40;;;22.10;90.90;;;;;;4161784;28;20559;-69
2023/05/20 07:43:58;;;;;;;9.80;5.45;;;21.90;91.00;;;;;;4160976;28;20486;-68
2023/05/20 07:45:59;;;;;;;6.95;5.80;;;22.00;91.30;;;;;;4162888;28;20037;-70
2023/05/20 07:48:00;;;;;;;10.00;6.13;;;22.10;91.20;;;;;;4161102;28;20067;-71
2023/05/20 07:50:01;;;;;;;7.03;5.60;;;22.20;91.20;;;;;;4162792;28;20377;-70
2023/05/20 07:52:02;;;;;;;8.60;5.70;;;22.10;91.10;;;;;;4161555;28;20421;-71
2023/05/20 07:54:03;;;;;;;8.40;5.40;;;22.10;90.90;;;;;;4163105;28;20033;-63
2023/05/20 07:56:05;;;;;;;11.27;6.50;;;22.20;91.10;;;;;;4160633;28;20094;-70
2023/05/20 07:58:06;;;;;;;13.20;6.00;;;22.30;91.00;;;;;;4162503;28;20076;-66
2023/05/20 08:00:08;;;;;;;7.93;5.97;;;22.30;91.10;;;;;;4143756;28;20034;-59
2023/05/20 08:02:09;;;;;;;7.82;6.53;;;22.40;91.00;;;;;;4162049;28;20025;-61
2023/05/20 08:04:10;;;;;;;9.77;6.45;;;22.50;91.00;;;;;;4161366;28;20030;-73
2023/05/20 08:06:12;;;;;;;9.27;6.00;;;22.70;91.10;;;;;;4160987;28;20444;-75
2023/05/20 08:08:13;;;;;;;9.90;5.65;;;22.70;91.10;;;;;;4161701;28;20037;-62
2023/05/20 08:10:14;;;;;;;12.90;6.13;;;22.80;91.00;;;;;;4160359;28;20037;-72
2023/05/20 08:12:15;;;;;;;11.05;6.60;;;23.00;90.90;;;;;;4162040;28;20084;-60
2023/05/20 08:14:16;;;;;;;10.38;6.55;;;22.80;91.00;;;;;;4160527;28;20083;-59
2023/05/20 08:16:18;;;;;;;6.50;5.32;;;22.70;91.30;;;;;;4162398;28;20091;-58
2023/05/20 08:18:19;;;;;;;9.88;6.15;;;22.60;91.30;;;;;;4160899;28;20022;-60
2023/05/20 08:20:20;;;;;;;9.70;5.57;;;22.80;91.50;;;;;;4162180;28;20037;-59
2023/05/20 08:22:21;;;;;;;8.00;5.38;;;23.00;91.00;;;;;;4160589;28;20119;-58
2023/05/20 08:24:22;;;;;;;7.97;5.75;;;23.40;91.00;;;;;;4162436;28;20034;-56
2023/05/20 08:26:23;;;;;;;12.27;5.75;;;23.60;90.70;;;;;;4160976;28;20111;-59
2023/05/20 08:28:24;;;;;;;10.52;5.97;;;23.80;91.00;;;;;;4161962;28;20437;-70
2023/05/20 08:30:26;;;;;;;5.90;4.85;;;24.00;90.70;;;;;;4161452;28;20029;-63
2023/05/20 08:32:27;;;;;;;5.93;4.57;;;24.30;89.70;;;;;;4160492;28;20107;-71
2023/05/20 08:34:28;;;;;;;5.68;3.95;;;24.40;88.30;;;;;;4161321;28;20122;-60
2023/05/20 08:36:29;;;;;;;6.40;4.80;;;24.40;86.70;;;;;;4161007;28;20029;-58
2023/05/20 08:38:31;;;;;;;6.28;4.50;;;24.00;84.80;;;;;;4160951;28;20448;-60
2023/05/20 08:40:35;;;;;;;5.38;4.25;;;24.00;85.00;;;;;;4159978;28;20103;-59
2023/05/20 08:42:41;;;;;;;7.00;4.18;;;24.10;85.60;;;;;;4161137;28;20075;-72
2023/05/20 08:44:44;;;;;;;9.20;5.28;;;24.30;86.20;;;;;;4161058;28;20029;-69
2023/05/20 08:46:46;;;;;;;7.50;5.05;;;24.20;86.90;;;;;;4160450;28;20667;-62
2023/05/20 08:48:48;;;;;;;7.53;5.05;;;24.10;86.80;;;;;;4160165;28;20091;-66
2023/05/20 08:50:52;;;;;;;7.20;4.68;;;23.80;88.00;;;;;;4161219;28;20563;-57
2023/05/20 08:52:53;;;;;;;7.47;5.53;;;23.80;87.30;;;;;;4160963;28;20033;-68
2023/05/20 08:54:55;;;;;;;5.68;5.07;;;23.60;87.30;;;;;;4160729;28;20037;-56
2023/05/20 08:56:56;;;;;;;8.25;5.00;;;23.40;87.70;;;;;;4160626;28;20111;-60
2023/05/20 08:58:58;;;;;;;7.47;4.90;;;23.30;88.20;;;;;;4160856;28;20034;-59
2023/05/20 09:00:59;;;;;;;7.60;4.93;;;23.30;87.80;;;;;;4160650;28;20049;-73
2023/05/20 09:03:00;;;;;;;8.32;4.78;;;23.40;87.70;;;;;;4161475;28;20075;-59
2023/05/20 09:05:03;;;;;;;6.28;4.97;;;23.40;87.90;;;;;;4159895;28;20444;-69
2023/05/20 09:07:05;;;;;;;8.40;4.40;;;23.50;88.00;;;;;;4143697;28;20034;-61
2023/05/20 09:09:07;;;;;;;8.10;4.68;;;23.60;87.80;;;;;;4161020;28;20067;-57
2023/05/20 09:11:09;;;;;;;8.73;4.25;;;23.30;87.40;;;;;;4161071;28;20033;-59
2023/05/20 09:13:10;;;;;;;7.82;4.75;;;23.10;87.90;;;;;;4160471;28;20103;-64
2023/05/20 09:15:11;;;;;;;6.57;4.72;;;22.80;88.80;;;;;;4160426;28;20485;-69
2023/05/20 09:17:13;;;;;;;6.03;4.35;;;22.80;89.30;;;;;;4160970;28;20098;-58
2023/05/20 09:19:14;;;;;;;8.90;4.82;;;22.80;89.60;;;;;;4160558;28;20033;-59
2023/05/20 09:21:15;;;;;;;4.75;4.13;;;22.70;90.10;;;;;;4160801;28;20464;-60
2023/05/20 09:23:18;;;;;;;6.10;4.80;;;22.60;90.30;;;;;;4160180;28;20075;-67
2023/05/20 09:25:21;;;;;;;8.77;4.72;;;22.60;90.10;;;;;;4161495;28;20103;-70
2023/05/20 09:27:23;;;;;;;8.07;5.13;;;22.70;90.10;;;;;;4159668;28;20037;-73
2023/05/20 09:29:25;;;;;;;7.32;4.82;;;22.80;90.60;;;;;;4160862;28;20041;-71
2023/05/20 09:31:28;;;;;;;6.18;4.13;;;22.60;91.10;;;;;;4159987;28;20104;-69
2023/05/20 09:33:30;;;;;;;6.25;4.80;;;22.50;90.80;;;;;;4160428;28;20391;-56
2023/05/20 09:35:37;;;;;;;7.18;4.65;;;22.40;91.00;;;;;;4159135;28;20038;-71
2023/05/20 09:37:45;;;;;;;6.75;4.95;;;22.40;90.90;;;;;;4143295;28;20560;-72
2023/05/20 09:39:58;;;;;;;7.57;4.90;;;22.30;90.60;;;;;;4159431;28;20045;-70
2023/05/20 09:42:11;;;;;;;4.55;4.10;;;22.30;90.60;;;;;;4160640;28;20045;-66
2023/05/20 09:44:15;;;;;;;8.07;4.85;;;22.20;90.60;;;;;;4160324;28;20030;-57
2023/05/20 09:46:16;;;;;;;7.93;5.03;;;22.20;90.80;;;;;;4160363;28;20041;-62
2023/05/20 09:48:17;;;;;;;7.35;4.40;;;22.20;91.00;;;;;;4160161;28;20037;-66
2023/05/20 09:50:20;;;;;;;7.57;4.80;;;22.30;90.80;;;;;;4160053;28;20042;-69
2023/05/20 09:52:21;;;;;;;9.35;4.57;;;22.40;91.20;;;;;;4159650;28;20092;-69
2023/05/20 09:54:24;;;;;;;8.38;4.97;;;22.60;91.70;;;;;;4163384;28;20033;-68
2023/05/20 09:56:27;;;;;;;5.65;4.60;;;22.50;92.00;;;;;;4164221;28;20034;-70
2023/05/20 09:58:28;;;;;;;8.20;5.10;;;22.50;92.10;;;;;;4163049;28;20041;-71
2023/05/20 10:00:30;;;;;;;6.65;4.68;;;22.60;92.10;;;;;;4164089;28;20030;-70
2023/05/20 10:02:34;;;;;;;8.52;5.47;;;22.70;92.10;;;;;;4162551;28;20468;-70
2023/05/20 10:04:37;;;;;;;7.55;5.50;;;22.80;91.70;;;;;;4163703;28;20041;-58
2023/05/20 10:07:00;;;;;;;6.90;4.93;;;22.80;91.60;;;;;;4163089;28;20362;-71
2023/05/20 10:09:21;;;;;;;10.18;5.10;;;22.90;91.60;;;;;;4163868;28;20037;-68
2023/05/20 10:11:45;;;;;;;10.02;5.75;;;23.00;91.50;;;;;;4162814;28;20034;-71
2023/05/20 10:13:57;;;;;;;7.20;4.78;;;23.00;91.70;;;;;;4153426;28;20041;-69
2023/05/20 10:16:04;;;;;;;7.07;5.22;;;23.00;91.50;;;;;;4163614;28;20428;-58
2023/05/20 10:18:27;;;;;;;7.78;4.75;;;23.10;91.50;;;;;;4163242;28;20504;-69
2023/05/20 10:20:28;;;;;;;9.68;5.40;;;23.00;91.30;;;;;;4163573;28;20037;-71
2023/05/20 10:22:32;;;;;;;7.22;4.75;;;23.10;91.50;;;;;;4163196;28;20045;-69
2023/05/20 10:24:36;;;;;;;7.15;5.10;;;23.10;91.30;;;;;;4163478;28;20037;-70
2023/05/20 10:26:40;;;;;;;8.88;4.55;;;23.30;91.50;;;;;;4163594;28;20041;-69
2023/05/20 10:28:41;;;;;;;9.77;5.32;;;23.30;91.40;;;;;;4162555;28;20030;-63
2023/05/20 10:30:49;;;;;;;6.78;4.93;;;23.30;91.20;;;;;;4164667;28;20033;-58
2023/05/20 10:32:59;;;;;;;7.00;4.65;;;23.40;91.10;;;;;;4162175;28;20095;-63
2023/05/20 10:35:03;;;;;;;8.27;4.55;;;23.40;91.20;;;;;;4164169;28;20030;-58